createdAt,value
2023-03-27T00:00:16.721Z,99096.72
2023-03-27T00:02:46.897Z,99104.78
2023-03-27T00:05:16.462Z,99112.63
2023-03-27T00:07:48.490Z,99133.41
2023-03-27T00:10:17.857Z,99131.50
2023-03-27T00:12:46.187Z,99138.38
2023-03-27T00:15:17.376Z,99148.72
2023-03-27T00:17:47.731Z,99154.88
2023-03-27T00:20:17.676Z,99158.63
2023-03-27T00:22:48.187Z,99158.16
2023-03-27T00:25:17.138Z,99168.25
2023-03-27T00:27:46.089Z,99164.66
2023-03-27T00:30:15.690Z,99167.88
2023-03-27T00:32:44.686Z,99170.50
2023-03-27T00:35:13.495Z,99183.69
2023-03-27T00:37:42.662Z,99188.19
2023-03-27T00:40:17.697Z,99190.03
2023-03-27T00:42:47.217Z,99196.59
2023-03-27T00:45:20.217Z,99209.78
2023-03-27T00:47:54.211Z,99206.59
2023-03-27T00:50:27.849Z,99203.38
2023-03-27T00:53:01.070Z,99210.59
2023-03-27T00:55:35.164Z,99221.47
2023-03-27T00:58:08.501Z,99227.56
2023-03-27T01:00:37.206Z,99224.91
2023-03-27T01:03:08.759Z,99234.94
2023-03-27T01:05:38.425Z,99224.25
2023-03-27T01:08:07.583Z,99242.06
2023-03-27T01:10:52.224Z,99243.75
2023-03-27T01:13:40.051Z,99248.13
2023-03-27T01:16:15.328Z,99263.28
2023-03-27T01:19:00.060Z,99254.22
2023-03-27T01:22:21.984Z,99272.13
2023-03-27T01:25:22.472Z,99278.44
2023-03-27T01:28:30.086Z,99285.31
2023-03-27T01:31:10.146Z,99291.19
2023-03-27T01:34:01.924Z,99289.34
2023-03-27T01:37:06.259Z,99304.72
2023-03-27T01:39:46.386Z,99306.31
2023-03-27T01:42:22.801Z,99321.09
2023-03-27T01:44:56.005Z,99315.28
2023-03-27T01:47:41.913Z,99330.78
2023-03-27T01:50:21.137Z,99330.88
2023-03-27T01:52:55.703Z,99343.16
2023-03-27T01:55:31.526Z,99347.78
2023-03-27T01:58:05.036Z,99349.47
2023-03-27T02:00:50.978Z,99346.75
2023-03-27T02:03:27.935Z,99356.47
2023-03-27T02:06:01.765Z,99368.31
2023-03-27T02:08:37.711Z,99374.81
2023-03-27T02:11:41.333Z,99379.50
2023-03-27T02:14:14.905Z,99379.75
2023-03-27T02:16:50.686Z,99387.91
2023-03-27T02:19:24.878Z,99389.16
2023-03-27T02:21:53.466Z,99407.97
2023-03-27T02:24:24.385Z,99406.94
2023-03-27T02:27:01.924Z,99413.34
2023-03-27T02:29:46.209Z,99419.75
2023-03-27T02:32:34.806Z,99431.44
2023-03-27T02:35:22.852Z,99439.00
2023-03-27T02:38:01.253Z,99442.88
2023-03-27T02:40:48.667Z,99458.13
2023-03-27T02:43:42.333Z,99471.13
2023-03-27T02:46:22.145Z,99473.84
2023-03-27T02:48:57.051Z,99479.81
2023-03-27T02:51:29.718Z,99476.69
2023-03-27T02:54:02.380Z,99492.94
2023-03-27T02:56:39.533Z,99501.16
2023-03-27T02:59:14.147Z,99512.56
2023-03-27T03:01:45.521Z,99516.06
2023-03-27T03:04:25.256Z,99520.16
2023-03-27T03:07:16.243Z,99526.09
2023-03-27T03:09:46.809Z,99540.31
2023-03-27T03:12:15.135Z,99532.41
2023-03-27T03:14:48.688Z,99553.97
2023-03-27T03:17:17.879Z,99554.63
2023-03-27T03:19:46.926Z,99555.25
2023-03-27T03:22:15.584Z,99567.06
2023-03-27T03:24:44.233Z,99570.69
2023-03-27T03:27:20.926Z,99575.75
2023-03-27T03:30:01.110Z,99574.97
2023-03-27T03:32:31.250Z,99579.19
2023-03-27T03:35:01.644Z,99578.97
2023-03-27T03:37:38.849Z,99580.97
2023-03-27T03:40:11.967Z,99593.53
2023-03-27T03:42:47.397Z,99611.75
2023-03-27T03:45:19.205Z,99612.78
2023-03-27T03:47:48.087Z,99620.91
2023-03-27T03:50:17.873Z,99627.81
2023-03-27T03:52:47.188Z,99634.91
2023-03-27T03:55:16.284Z,99644.22
2023-03-27T03:57:48.486Z,99644.06
2023-03-27T04:00:28.166Z,99646.69
2023-03-27T04:02:58.724Z,99660.88
2023-03-27T04:05:27.323Z,99676.09
2023-03-27T04:08:00.151Z,99675.88
2023-03-27T04:10:41.338Z,99686.41
2023-03-27T04:13:22.470Z,99689.47
2023-03-27T04:16:01.760Z,99690.25
2023-03-27T04:18:39.396Z,99704.03
2023-03-27T04:21:14.741Z,99707.91
2023-03-27T04:23:45.245Z,99717.41
2023-03-27T04:26:16.931Z,99721.47
2023-03-27T04:29:10.439Z,99735.69
2023-03-27T04:32:03.364Z,99744.78
2023-03-27T04:34:41.568Z,99746.47
2023-03-27T04:37:18.482Z,99735.75
2023-03-27T04:40:13.314Z,99749.91
2023-03-27T04:42:44.120Z,99769.78
2023-03-27T04:45:17.893Z,99768.13
2023-03-27T04:47:50.853Z,99769.56
2023-03-27T04:50:20.997Z,99773.41
2023-03-27T04:52:50.624Z,99788.78
2023-03-27T04:55:23.042Z,99788.41
2023-03-27T04:57:51.938Z,99789.19
2023-03-27T05:00:23.810Z,99789.03
2023-03-27T05:03:13.927Z,99793.50
2023-03-27T05:06:11.938Z,99803.81
2023-03-27T05:08:42.116Z,99803.22
2023-03-27T05:11:20.346Z,99820.03
2023-03-27T05:13:49.045Z,99835.38
2023-03-27T05:16:22.173Z,99834.81
2023-03-27T05:18:56.561Z,99842.09
2023-03-27T05:21:25.124Z,99849.41
2023-03-27T05:23:53.578Z,99852.03
2023-03-27T05:26:25.928Z,99856.50
2023-03-27T05:28:59.777Z,99877.75
2023-03-27T05:31:30.115Z,99865.41
2023-03-27T05:34:21.968Z,99877.75
2023-03-27T05:36:55.045Z,99893.78
2023-03-27T05:39:25.606Z,99889.94
2023-03-27T05:41:54.248Z,99902.69
2023-03-27T05:44:25.684Z,99899.03
2023-03-27T05:46:54.437Z,99915.63
2023-03-27T05:49:34.012Z,99907.16
2023-03-27T05:52:10.646Z,99915.66
2023-03-27T05:54:39.245Z,99920.31
2023-03-27T05:57:12.000Z,99938.13
2023-03-27T05:59:42.389Z,99935.31
2023-03-27T06:02:21.461Z,99942.16
2023-03-27T06:05:01.431Z,99935.50
2023-03-27T06:07:36.033Z,99945.22
2023-03-27T06:10:13.324Z,99944.41
2023-03-27T06:12:48.877Z,99956.94
2023-03-27T06:15:26.449Z,99975.16
2023-03-27T06:18:09.641Z,99979.81
2023-03-27T06:20:40.665Z,99984.28
2023-03-27T06:23:09.555Z,99993.59
2023-03-27T06:25:40.712Z,100007.75
2023-03-27T06:28:13.404Z,100015.66
2023-03-27T06:30:46.882Z,100015.44
2023-03-27T06:33:36.224Z,100034.88
2023-03-27T06:36:10.925Z,100022.34
2023-03-27T06:38:42.565Z,100046.22
2023-03-27T06:41:11.684Z,100038.50
2023-03-27T06:44:03.431Z,100038.91
2023-03-27T06:47:00.879Z,100052.06
2023-03-27T06:49:34.204Z,100052.88
2023-03-27T06:52:12.396Z,100062.38
2023-03-27T06:54:41.181Z,100056.06
2023-03-27T06:57:09.874Z,100060.09
2023-03-27T06:59:50.630Z,100078.72
2023-03-27T07:02:24.417Z,100077.94
2023-03-27T07:05:16.989Z,100086.63
2023-03-27T07:07:49.057Z,100094.50
2023-03-27T07:10:19.234Z,100092.09
2023-03-27T07:12:48.716Z,100096.09
2023-03-27T07:15:20.022Z,100118.19
2023-03-27T07:17:55.473Z,100116.56
2023-03-27T07:20:24.930Z,100115.94
2023-03-27T07:22:56.589Z,100120.19
2023-03-27T07:25:50.197Z,100121.59
2023-03-27T07:28:32.922Z,100134.53
2023-03-27T07:31:29.236Z,100146.22
2023-03-27T07:34:01.006Z,100159.81
2023-03-27T07:36:49.889Z,100166.84
2023-03-27T07:39:19.686Z,100164.00
2023-03-27T07:41:48.136Z,100177.16
2023-03-27T07:44:24.970Z,100168.06
2023-03-27T07:47:06.943Z,100173.72
2023-03-27T07:49:40.137Z,100184.03
2023-03-27T07:52:15.331Z,100160.97
2023-03-27T07:54:56.874Z,100182.81
2023-03-27T07:57:31.663Z,100180.38
2023-03-27T08:00:11.854Z,100184.19
2023-03-27T08:02:52.347Z,100188.44
2023-03-27T08:05:21.345Z,100189.06
2023-03-27T08:08:05.948Z,100192.72
2023-03-27T08:10:50.439Z,100200.78
2023-03-27T08:13:19.498Z,100202.22
2023-03-27T08:15:48.014Z,100204.63
2023-03-27T08:18:25.712Z,100215.97
2023-03-27T08:20:57.343Z,100217.22
2023-03-27T08:23:28.231Z,100217.22
2023-03-27T08:26:20.927Z,100221.09
2023-03-27T08:28:56.977Z,100232.00
2023-03-27T08:31:30.917Z,100232.00
2023-03-27T08:34:05.318Z,100239.88
2023-03-27T08:37:00.032Z,100239.66
2023-03-27T08:39:39.773Z,100242.13
2023-03-27T08:42:19.078Z,100241.09
2023-03-27T08:44:54.950Z,100240.72
2023-03-27T08:47:42.131Z,100251.47
2023-03-27T08:50:33.922Z,100253.69
2023-03-27T08:53:23.158Z,100260.19
2023-03-27T08:55:51.538Z,100248.47
2023-03-27T08:58:28.476Z,100257.81
2023-03-27T09:01:20.559Z,100259.03
2023-03-27T09:03:57.471Z,100261.31
2023-03-27T09:06:29.393Z,100268.41
2023-03-27T09:09:12.295Z,100253.03
2023-03-27T09:11:55.979Z,100270.88
2023-03-27T09:14:37.485Z,100274.13
2023-03-27T09:17:15.866Z,100274.13
2023-03-27T09:19:53.378Z,100276.53
2023-03-27T09:22:31.306Z,100275.31
2023-03-27T09:25:23.290Z,100274.13
2023-03-27T09:28:21.030Z,100281.19
2023-03-27T09:30:59.995Z,100268.25
2023-03-27T09:33:41.441Z,100269.88
2023-03-27T09:36:11.015Z,100268.47
2023-03-27T09:38:50.592Z,100277.78
2023-03-27T09:41:28.594Z,100267.06
2023-03-27T09:44:03.515Z,100264.63
2023-03-27T09:46:37.834Z,100278.81
2023-03-27T09:49:14.614Z,100264.63
2023-03-27T09:51:51.358Z,100258.38
2023-03-27T09:54:54.227Z,100267.91
2023-03-27T09:57:38.631Z,100278.03
2023-03-27T10:00:28.292Z,100280.28
2023-03-27T10:03:05.880Z,100282.31
2023-03-27T10:05:38.917Z,100288.00
2023-03-27T10:08:32.712Z,100289.22
2023-03-27T10:11:18.389Z,100288.03
2023-03-27T10:13:54.872Z,100286.63
2023-03-27T10:16:27.947Z,100283.59
2023-03-27T10:19:02.801Z,100286.44
2023-03-27T10:21:42.628Z,100282.19
2023-03-27T10:24:22.560Z,100286.63
2023-03-27T10:27:24.861Z,100285.03
2023-03-27T10:30:31.314Z,100283.41
2023-03-27T10:33:30.899Z,100290.91
2023-03-27T10:36:14.627Z,100289.09
2023-03-27T10:38:44.153Z,100286.06
2023-03-27T10:41:37.632Z,100291.97
2023-03-27T10:44:18.000Z,100290.53
2023-03-27T10:46:52.897Z,100303.53
2023-03-27T10:49:30.871Z,100306.16
2023-03-27T10:52:15.928Z,100298.66
2023-03-27T10:55:35.114Z,100304.53
2023-03-27T10:58:09.342Z,100299.03
2023-03-27T11:00:43.468Z,100300.28
2023-03-27T11:03:26.676Z,100306.34
2023-03-27T11:06:06.661Z,100311.03
2023-03-27T11:08:54.039Z,100306.34
2023-03-27T11:11:30.815Z,100309.63
2023-03-27T11:14:06.248Z,100349.16
2023-03-27T11:16:41.278Z,100351.56
2023-03-27T11:19:43.689Z,100378.53
2023-03-27T11:22:55.895Z,100398.59
2023-03-27T11:25:46.579Z,100398.78
2023-03-27T11:28:27.005Z,100391.06
2023-03-27T11:31:12.001Z,100393.50
2023-03-27T11:33:49.097Z,100407.31
2023-03-27T11:36:37.625Z,100396.34
2023-03-27T11:39:35.924Z,100395.72
2023-03-27T11:42:17.804Z,100393.28
2023-03-27T11:44:48.890Z,100394.72
2023-03-27T11:47:45.674Z,100380.53
2023-03-27T11:50:33.989Z,100370.00
2023-03-27T11:53:43.898Z,100381.75
2023-03-27T11:56:33.027Z,100369.59
2023-03-27T11:59:51.430Z,100369.00
2023-03-27T12:02:49.468Z,100372.03
2023-03-27T12:05:35.509Z,100369.63
2023-03-27T12:08:14.736Z,100373.47
2023-03-27T12:10:48.908Z,100367.59
2023-03-27T12:14:09.016Z,100369.81
2023-03-27T12:17:14.098Z,100372.47
2023-03-27T12:20:31.945Z,100367.78
2023-03-27T12:23:26.768Z,100371.69
2023-03-27T12:26:49.208Z,100365.97
2023-03-27T12:29:53.257Z,100361.09
2023-03-27T12:33:07.112Z,100364.16
2023-03-27T12:35:43.300Z,100356.47
2023-03-27T12:38:28.043Z,100358.28
2023-03-27T12:41:21.655Z,100363.00
2023-03-27T12:44:06.334Z,100356.28
2023-03-27T12:46:43.781Z,100346.75
2023-03-27T12:49:58.492Z,100337.84
2023-03-27T12:52:32.927Z,100345.34
2023-03-27T12:55:35.532Z,100345.13
2023-03-27T12:58:06.315Z,100366.00
2023-03-27T13:01:00.723Z,100372.13
2023-03-27T13:04:12.162Z,100398.09
2023-03-27T13:06:52.094Z,100403.38
2023-03-27T13:09:44.943Z,100399.47
2023-03-27T13:12:36.668Z,100410.00
2023-03-27T13:15:22.223Z,100431.47
2023-03-27T13:18:29.755Z,100443.84
2023-03-27T13:21:08.867Z,100444.06
2023-03-27T13:23:57.133Z,100428.03
2023-03-27T13:26:52.183Z,100410.16
2023-03-27T13:29:26.470Z,100408.53
2023-03-27T13:32:05.219Z,100422.75
2023-03-27T13:35:10.673Z,100409.97
2023-03-27T13:37:58.342Z,100413.41
2023-03-27T13:40:49.767Z,100410.56
2023-03-27T13:43:26.707Z,100413.41
2023-03-27T13:46:19.277Z,100414.00
2023-03-27T13:49:22.299Z,100423.78
2023-03-27T13:53:06.329Z,100422.34
2023-03-27T13:56:41.327Z,100412.00
2023-03-27T13:59:52.729Z,100424.19
2023-03-27T14:03:22.860Z,100412.84
2023-03-27T14:06:50.242Z,100406.53
2023-03-27T14:09:38.133Z,100392.56
2023-03-27T14:12:26.676Z,100402.28
2023-03-27T14:15:42.318Z,100411.81
2023-03-27T14:18:48.167Z,100413.03
2023-03-27T14:21:31.183Z,100409.81
2023-03-27T14:24:12.036Z,100402.50
2023-03-27T14:26:46.439Z,100404.53
2023-03-27T14:29:21.412Z,100407.16
2023-03-27T14:31:52.795Z,100409.00
2023-03-27T14:34:51.007Z,100405.34
2023-03-27T14:37:42.038Z,100397.03
2023-03-27T14:40:39.398Z,100397.28
2023-03-27T14:43:13.080Z,100400.50
2023-03-27T14:45:43.589Z,100384.91
2023-03-27T14:48:22.302Z,100379.81
2023-03-27T14:50:56.214Z,100382.06
2023-03-27T14:53:29.026Z,100380.63
2023-03-27T14:56:28.622Z,100388.94
2023-03-27T14:59:34.684Z,100402.75
2023-03-27T15:02:21.750Z,100394.03
2023-03-27T15:04:56.625Z,100384.69
2023-03-27T15:07:28.897Z,100392.00
2023-03-27T15:10:24.504Z,100396.88
2023-03-27T15:13:12.001Z,100399.50
2023-03-27T15:15:51.255Z,100400.13
2023-03-27T15:18:28.329Z,100400.72
2023-03-27T15:20:59.807Z,100398.69
2023-03-27T15:23:37.878Z,100393.03
2023-03-27T15:26:12.054Z,100395.66
2023-03-27T15:28:45.034Z,100401.53
2023-03-27T15:31:15.614Z,100401.94
2023-03-27T15:33:54.380Z,100414.31
2023-03-27T15:36:28.528Z,100408.63
2023-03-27T15:39:00.625Z,100413.69
2023-03-27T15:41:51.556Z,100416.16
2023-03-27T15:44:22.198Z,100416.56
2023-03-27T15:46:57.876Z,100410.47
2023-03-27T15:49:32.162Z,100421.22
2023-03-27T15:52:02.444Z,100426.69
2023-03-27T15:54:34.445Z,100425.50
2023-03-27T15:57:09.620Z,100421.41
2023-03-27T15:59:52.098Z,100430.16
2023-03-27T16:02:25.638Z,100431.75
2023-03-27T16:04:57.758Z,100430.56
2023-03-27T16:07:30.432Z,100430.75
2023-03-27T16:10:02.613Z,100427.91
2023-03-27T16:12:35.123Z,100425.69
2023-03-27T16:15:08.232Z,100438.06
2023-03-27T16:17:45.090Z,100438.69
2023-03-27T16:20:37.420Z,100441.53
2023-03-27T16:23:06.287Z,100438.47
2023-03-27T16:25:35.048Z,100445.16
2023-03-27T16:28:03.912Z,100445.78
2023-03-27T16:30:35.912Z,100452.28
2023-03-27T16:33:10.184Z,100453.28
2023-03-27T16:35:40.046Z,100472.38
2023-03-27T16:38:08.516Z,100485.78
2023-03-27T16:40:36.984Z,100489.81
2023-03-27T16:43:05.370Z,100480.50
2023-03-27T16:45:33.924Z,100489.63
2023-03-27T16:48:02.500Z,100499.75
2023-03-27T16:50:35.337Z,100492.88
2023-03-27T16:53:05.139Z,100491.44
2023-03-27T16:55:33.583Z,100498.53
2023-03-27T16:58:03.488Z,100510.09
2023-03-27T17:00:31.973Z,100510.28
2023-03-27T17:03:00.910Z,100513.75
2023-03-27T17:05:34.014Z,100509.28
2023-03-27T17:08:05.999Z,100524.72
2023-03-27T17:10:35.989Z,100515.75
2023-03-27T17:13:07.438Z,100528.34
2023-03-27T17:15:38.069Z,100535.44
2023-03-27T17:18:09.567Z,100543.38
2023-03-27T17:20:38.134Z,100537.50
2023-03-27T17:23:08.083Z,100544.97
2023-03-27T17:25:36.688Z,100540.72
2023-03-27T17:28:07.052Z,100554.13
2023-03-27T17:30:40.992Z,100562.84
2023-03-27T17:33:14.260Z,100571.19
2023-03-27T17:35:43.595Z,100565.69
2023-03-27T17:38:13.499Z,100565.50
2023-03-27T17:40:43.170Z,100566.91
2023-03-27T17:43:12.481Z,100566.72
2023-03-27T17:45:42.744Z,100573.03
2023-03-27T17:48:11.957Z,100581.94
2023-03-27T17:50:40.979Z,100599.19
2023-03-27T17:53:09.420Z,100602.88
2023-03-27T17:55:40.015Z,100623.56
2023-03-27T17:58:10.267Z,100619.25
2023-03-27T18:00:39.907Z,100637.72
2023-03-27T18:03:09.840Z,100632.22
2023-03-27T18:05:41.124Z,100643.56
2023-03-27T18:08:12.294Z,100638.69
2023-03-27T18:10:48.402Z,100640.44
2023-03-27T18:13:18.211Z,100642.69
2023-03-27T18:15:55.232Z,100641.25
2023-03-27T18:18:24.249Z,100655.63
2023-03-27T18:20:52.809Z,100648.31
2023-03-27T18:23:21.925Z,100664.72
2023-03-27T18:25:51.883Z,100656.81
2023-03-27T18:28:20.470Z,100659.66
2023-03-27T18:30:48.960Z,100659.47
2023-03-27T18:33:17.597Z,100666.53
2023-03-27T18:35:46.673Z,100672.81
2023-03-27T18:38:15.517Z,100662.09
2023-03-27T18:40:44.011Z,100658.81
2023-03-27T18:43:13.979Z,100667.13
2023-03-27T18:45:42.837Z,100664.44
2023-03-27T18:48:11.463Z,100670.50
2023-03-27T18:50:40.308Z,100665.66
2023-03-27T18:53:08.731Z,100676.75
2023-03-27T18:55:37.369Z,100687.31
2023-03-27T18:58:06.473Z,100681.41
2023-03-27T19:00:36.435Z,100687.50
2023-03-27T19:03:05.241Z,100688.75
2023-03-27T19:05:33.822Z,100677.19
2023-03-27T19:08:02.335Z,100682.88
2023-03-27T19:10:30.953Z,100681.47
2023-03-27T19:13:19.705Z,100694.44
2023-03-27T19:16:28.070Z,100709.63
2023-03-27T19:19:16.708Z,100705.75
2023-03-27T19:21:55.108Z,100715.31
2023-03-27T19:24:49.857Z,100713.22
2023-03-27T19:27:23.537Z,100715.88
2023-03-27T19:29:53.385Z,100716.69
2023-03-27T19:32:24.156Z,100709.41
2023-03-27T19:34:52.809Z,100725.22
2023-03-27T19:37:21.315Z,100707.78
2023-03-27T19:39:50.673Z,100725.84
2023-03-27T19:42:19.351Z,100721.56
2023-03-27T19:44:47.924Z,100731.13
2023-03-27T19:47:16.378Z,100729.47
2023-03-27T19:49:46.342Z,100728.50
2023-03-27T19:52:19.416Z,100725.22
2023-03-27T19:54:48.151Z,100728.50
2023-03-27T19:57:16.781Z,100723.38
2023-03-27T19:59:45.376Z,100718.13
2023-03-27T20:02:14.423Z,100729.47
2023-03-27T20:04:42.832Z,100737.59
2023-03-27T20:07:12.859Z,100728.44
2023-03-27T20:09:41.231Z,100732.25
2023-03-27T20:12:11.269Z,100731.66
2023-03-27T20:14:39.721Z,100736.72
2023-03-27T20:17:18.117Z,100743.81
2023-03-27T20:19:55.762Z,100739.28
2023-03-27T20:22:26.930Z,100739.94
2023-03-27T20:24:55.618Z,100742.94
2023-03-27T20:27:24.107Z,100743.97
2023-03-27T20:29:52.669Z,100750.22
2023-03-27T20:32:21.139Z,100750.59
2023-03-27T20:34:50.780Z,100757.88
2023-03-27T20:37:19.492Z,100754.44
2023-03-27T20:40:01.958Z,100742.00
2023-03-27T20:42:30.515Z,100752.34
2023-03-27T20:44:59.743Z,100772.63
2023-03-27T20:47:38.921Z,100762.28
2023-03-27T20:50:08.638Z,100759.84
2023-03-27T20:52:37.059Z,100766.47
2023-03-27T20:55:08.056Z,100772.59
2023-03-27T20:57:36.758Z,100778.84
2023-03-27T21:00:07.873Z,100776.56
2023-03-27T21:02:36.405Z,100778.38
2023-03-27T21:05:05.430Z,100780.41
2023-03-27T21:07:34.179Z,100778.97
2023-03-27T21:10:02.638Z,100776.69
2023-03-27T21:12:32.527Z,100772.63
2023-03-27T21:15:01.209Z,100770.19
2023-03-27T21:17:29.556Z,100773.81
2023-03-27T21:19:57.971Z,100775.81
2023-03-27T21:22:26.412Z,100774.38
2023-03-27T21:24:54.794Z,100770.91
2023-03-27T21:27:23.100Z,100774.75
2023-03-27T21:29:56.387Z,100772.06
2023-03-27T21:32:24.856Z,100771.25
2023-03-27T21:34:53.200Z,100785.03
2023-03-27T21:37:21.571Z,100786.59
2023-03-27T21:39:49.915Z,100793.50
2023-03-27T21:42:21.718Z,100781.06
2023-03-27T21:44:54.417Z,100795.88
2023-03-27T21:47:37.343Z,100780.97
2023-03-27T21:50:13.437Z,100790.53
2023-03-27T21:52:41.844Z,100796.97
2023-03-27T21:55:10.958Z,100794.53
2023-03-27T21:57:39.347Z,100800.97
2023-03-27T22:00:09.968Z,100795.44
2023-03-27T22:02:42.914Z,100803.97
2023-03-27T22:05:11.589Z,100803.72
2023-03-27T22:07:42.570Z,100810.41
2023-03-27T22:10:12.303Z,100803.88
2023-03-27T22:12:41.232Z,100810.16
2023-03-27T22:15:11.258Z,100807.88
2023-03-27T22:17:41.156Z,100808.69
2023-03-27T22:20:10.945Z,100809.06
2023-03-27T22:22:39.461Z,100818.78
2023-03-27T22:25:09.273Z,100817.34
2023-03-27T22:27:38.050Z,100827.88
2023-03-27T22:30:08.240Z,100827.44
2023-03-27T22:32:36.822Z,100830.41
2023-03-27T22:35:07.592Z,100834.03
2023-03-27T22:37:37.443Z,100835.03
2023-03-27T22:40:07.883Z,100840.63
2023-03-27T22:42:37.627Z,100853.16
2023-03-27T22:45:06.826Z,100854.31
2023-03-27T22:47:35.947Z,100858.59
2023-03-27T22:50:06.470Z,100861.56
2023-03-27T22:52:34.902Z,100855.03
2023-03-27T22:55:03.363Z,100853.78
2023-03-27T22:57:31.811Z,100863.47
2023-03-27T23:00:00.300Z,100860.22
2023-03-27T23:02:28.924Z,100868.28
2023-03-27T23:04:57.405Z,100866.81
2023-03-27T23:07:27.203Z,100865.56
2023-03-27T23:09:56.075Z,100859.47
2023-03-27T23:12:24.479Z,100875.09
2023-03-27T23:14:52.995Z,100878.25
2023-03-27T23:17:21.487Z,100892.03
2023-03-27T23:19:50.012Z,100884.69
2023-03-27T23:22:18.393Z,100882.88
2023-03-27T23:24:48.174Z,100881.22
2023-03-27T23:27:16.626Z,100885.88
2023-03-27T23:29:45.892Z,100881.16
2023-03-27T23:32:14.290Z,100889.03
2023-03-27T23:34:42.602Z,100885.13
2023-03-27T23:37:10.993Z,100892.03
2023-03-27T23:39:39.343Z,100908.81
2023-03-27T23:42:09.154Z,100895.34
2023-03-27T23:44:37.556Z,100900.59
2023-03-27T23:47:06.162Z,100905.06
2023-03-27T23:49:34.518Z,100904.41
2023-03-27T23:52:02.901Z,100912.47
2023-03-27T23:54:31.416Z,100922.72
2023-03-27T23:56:59.888Z,100922.34
2023-03-27T23:59:37.828Z,100921.88
